Townsend, MT

11:27 AM MST on February 28, 2017 (GMT -0700)
Silos Recreation Area | | Change Station
Active Advisory: Special Statement

Elev 3860 ft 46.41 °N, 111.58 °W | Updated 2 minutes ago

Mostly Cloudy
Mostly Cloudy
34.2 °F
Feels Like 26 °F
N
12.1
Wind Variable Wind from SE
Gusts 14.5 mph

Today
High -- | Low -- °F
--% Chance of Precip.
Yesterday
High -- | Low -- °F
Precip. -- in
Pressure 29.68 in
Visibility 2.5 miles
Clouds Scattered Clouds 2200 ft
Mostly Cloudy 3700 ft
Overcast 8000 ft
Windchill 26 °F
Dew Point 7 °F
Humidity 31%
Rainfall 0.00 in
Snow Depth Not available.
7:06 AM 6:11 PM
Waxing Crescent, 6% visible
SPECI KHLN 281819Z VRB03KT 2 1/2SM -SN BR SCT022 BKN037 OVC080 M04/M06 A2968 RMK AO2 P0000 T10441056
Pressure 29.68 in
Visibility 2.5 miles
Clouds Scattered Clouds 2200 ft
Mostly Cloudy 3700 ft
Overcast 8000 ft
Windchill 26 °F
Dew Point 7 °F
Humidity 31%
Rainfall 0.00 in
Snow Depth Not available.
7:06 AM 6:11 PM
Waxing Crescent, 6% visible
SPECI KHLN 281819Z VRB03KT 2 1/2SM -SN BR SCT022 BKN037 OVC080 M04/M06 A2968 RMK AO2 P0000 T10441056

Get Your Daily Forecast Email!

Thanks for signing up!

Be on the lookout for a verification email in your inbox.

You'll start receiving the daily forecast at 8 AM.

×

10-Day Weather Forecast

Almanac

Astronomy

Feb. 28, 2017 Rise Set
Actual Time
Civil Twilight
Nautical Twilight
Astronomical Twilight
Moon
Length of Visible Light
Length of Day
Tomorrow will be .
, % of the Moon is Illuminated

Today's Extremes

State Highs State Lows

Community

WunderPhotos

Upload Photos

1,962,540 photos uploaded!

WunderBlog® & News

Nearby

Air Quality

  Air Quality AQ Index Pollutant
Not available.

Snow Depth

Station Depth Elevation

Earthquake Activity

City Distance Mag. Time & Date
Minimum magnitude displayed is 2.5.

Coastal Water Temperatures

Place Temperature

Stations

Nearby Weather Stations

Station Location Temp. Windchill Dew Point Humidity Wind Precip. Elev Updated Type
                   

Watches & Warnings

Special Statement
Issued: 10:57 AM MST Feb. 28, 2017 – National Weather Service

Narrow bands of snow, moderate at times, will affect portions of
Lewis & Clark, Broadwater, and Jefferson counties through early
afternoon. Visibility may be reduced to less than 1 mile. In
addition, be prepared for variable driving conditions, including
areas of slick, snow-covered roads.